createdAt,value
2023-05-10T00:01:34.417Z,17.35
2023-05-10T00:04:01.095Z,17.95
2023-05-10T00:06:28.233Z,16.65
2023-05-10T00:08:54.975Z,17.30
2023-05-10T00:11:23.031Z,19.17
2023-05-10T00:13:50.118Z,17.38
2023-05-10T00:16:16.911Z,16.63
2023-05-10T00:18:43.658Z,17.52
2023-05-10T00:21:10.524Z,17.48
2023-05-10T00:23:37.336Z,17.13
2023-05-10T00:26:04.167Z,16.33
2023-05-10T00:28:31.154Z,14.98
2023-05-10T00:30:57.920Z,17.15
2023-05-10T00:33:24.621Z,16.02
2023-05-10T00:35:51.707Z,17.00
2023-05-10T00:38:18.475Z,16.55
2023-05-10T00:40:45.223Z,17.08
2023-05-10T00:43:12.383Z,16.85
2023-05-10T00:45:41.522Z,16.55
2023-05-10T00:48:08.510Z,16.27
2023-05-10T00:50:35.837Z,17.38
2023-05-10T00:53:04.156Z,16.42
2023-05-10T00:55:31.379Z,16.50
2023-05-10T00:57:58.337Z,15.40
2023-05-10T01:00:25.124Z,15.48
2023-05-10T01:02:52.021Z,14.43
2023-05-10T01:05:19.180Z,15.60
2023-05-10T01:07:46.875Z,15.50
2023-05-10T01:10:14.119Z,15.05
2023-05-10T01:12:46.491Z,17.40
2023-05-10T01:15:15.149Z,15.82
2023-05-10T01:17:44.732Z,15.43
2023-05-10T01:20:13.225Z,16.15
2023-05-10T01:22:48.992Z,15.90
2023-05-10T01:25:36.272Z,15.60
2023-05-10T01:28:26.880Z,15.50
2023-05-10T01:31:15.613Z,15.13
2023-05-10T01:34:06.622Z,15.80
2023-05-10T01:36:41.202Z,16.95
2023-05-10T01:39:21.404Z,15.77
2023-05-10T01:42:00.514Z,16.02
2023-05-10T01:44:32.269Z,14.77
2023-05-10T01:47:22.932Z,15.75
2023-05-10T01:49:54.227Z,15.68
2023-05-10T01:52:27.169Z,15.63
2023-05-10T01:55:02.625Z,15.07
2023-05-10T02:00:02.017Z,14.70
2023-05-10T02:02:30.890Z,14.73
2023-05-10T02:04:59.389Z,14.60
2023-05-10T02:07:28.188Z,15.40
2023-05-10T02:09:56.558Z,14.52
2023-05-10T02:12:25.288Z,13.80
2023-05-10T02:14:53.845Z,13.48
2023-05-10T02:17:21.333Z,14.48
2023-05-10T02:19:48.757Z,15.02
2023-05-10T02:22:17.587Z,13.18
2023-05-10T02:24:45.546Z,13.55
2023-05-10T02:27:13.571Z,13.88
2023-05-10T02:29:40.534Z,12.63
2023-05-10T02:32:07.722Z,12.05
2023-05-10T02:34:34.814Z,12.30
2023-05-10T02:37:03.544Z,11.80
2023-05-10T02:39:32.184Z,11.13
2023-05-10T02:41:59.271Z,9.77
2023-05-10T02:44:32.008Z,11.02
2023-05-10T02:46:59.518Z,10.30
2023-05-10T02:49:26.286Z,9.90
2023-05-10T02:51:57.767Z,9.75
2023-05-10T02:54:32.967Z,8.90
2023-05-10T02:57:03.806Z,9.05
2023-05-10T02:59:30.540Z,9.07
2023-05-10T03:01:57.553Z,8.80
2023-05-10T03:04:24.323Z,8.30
2023-05-10T03:06:51.608Z,8.05
2023-05-10T03:09:18.660Z,8.63
2023-05-10T03:11:57.613Z,8.52
2023-05-10T03:14:36.100Z,8.68
2023-05-10T03:17:17.171Z,8.60
2023-05-10T03:19:55.485Z,8.48
2023-05-10T03:22:50.833Z,9.10
2023-05-10T03:25:19.757Z,8.55
2023-05-10T03:27:47.601Z,8.45
2023-05-10T03:30:15.645Z,9.43
2023-05-10T03:32:42.687Z,8.25
2023-05-10T03:35:10.539Z,9.20
2023-05-10T03:37:37.516Z,8.70
2023-05-10T03:40:05.114Z,8.68
2023-05-10T03:42:31.835Z,8.30
2023-05-10T03:44:58.596Z,8.50
2023-05-10T03:47:25.459Z,8.32
2023-05-10T03:49:52.249Z,7.95
2023-05-10T03:52:19.175Z,8.63
2023-05-10T03:54:45.944Z,6.93
2023-05-10T03:57:12.712Z,7.72
2023-05-10T03:59:39.489Z,7.40
2023-05-10T04:02:06.639Z,7.57
2023-05-10T04:04:33.508Z,7.25
2023-05-10T04:07:00.272Z,6.78
2023-05-10T04:09:27.393Z,7.22
2023-05-10T04:11:54.320Z,7.43
2023-05-10T04:14:21.052Z,7.03
2023-05-10T04:16:48.103Z,7.15
2023-05-10T04:19:14.882Z,7.10
2023-05-10T04:21:41.758Z,6.82
2023-05-10T04:24:08.552Z,7.40
2023-05-10T04:26:35.270Z,6.97
2023-05-10T04:29:02.100Z,7.30
2023-05-10T04:31:29.254Z,6.65
2023-05-10T04:33:56.003Z,6.20
2023-05-10T04:36:22.697Z,6.53
2023-05-10T04:38:49.745Z,6.75
2023-05-10T04:41:16.482Z,6.38
2023-05-10T04:43:43.198Z,6.28
2023-05-10T04:46:10.053Z,5.90
2023-05-10T04:48:36.840Z,5.97
2023-05-10T04:51:04.900Z,6.20
2023-05-10T04:53:31.870Z,6.22
2023-05-10T04:55:58.578Z,7.22
2023-05-10T04:58:25.369Z,6.82
2023-05-10T05:00:52.088Z,6.45
2023-05-10T05:03:18.903Z,6.55
2023-05-10T05:05:45.937Z,6.63
2023-05-10T05:08:12.923Z,7.00
2023-05-10T05:10:39.633Z,6.45
2023-05-10T05:13:06.679Z,7.28
2023-05-10T05:15:33.991Z,6.32
2023-05-10T05:18:01.190Z,7.10
2023-05-10T05:20:27.949Z,6.57
2023-05-10T05:22:54.702Z,7.38
2023-05-10T05:25:21.399Z,7.00
2023-05-10T05:27:48.184Z,6.82
2023-05-10T05:30:15.124Z,7.20
2023-05-10T05:32:42.175Z,6.22
2023-05-10T05:35:09.286Z,6.65
2023-05-10T05:37:36.641Z,6.10
2023-05-10T05:40:03.638Z,6.72
2023-05-10T05:42:31.706Z,6.57
2023-05-10T05:44:58.502Z,7.28
2023-05-10T05:47:25.477Z,7.00
2023-05-10T05:49:52.348Z,6.45
2023-05-10T05:52:19.141Z,6.53
2023-05-10T05:54:45.799Z,6.25
2023-05-10T05:57:12.539Z,6.50
2023-05-10T05:59:44.315Z,6.30
2023-05-10T06:02:11.716Z,6.03
2023-05-10T06:04:39.217Z,6.57
2023-05-10T06:07:06.107Z,6.00
2023-05-10T06:09:32.834Z,6.10
2023-05-10T06:11:59.530Z,6.68
2023-05-10T06:14:26.223Z,6.15
2023-05-10T06:16:52.964Z,6.82
2023-05-10T06:19:19.730Z,6.55
2023-05-10T06:21:46.754Z,6.65
2023-05-10T06:24:13.525Z,6.63
2023-05-10T06:26:40.463Z,6.85
2023-05-10T06:29:07.507Z,7.18
2023-05-10T06:31:34.303Z,6.38
2023-05-10T06:34:01.346Z,7.20
2023-05-10T06:36:28.365Z,5.82
2023-05-10T06:38:55.752Z,6.30
2023-05-10T06:41:24.554Z,5.50
2023-05-10T06:43:51.820Z,5.80
2023-05-10T06:46:18.704Z,6.00
2023-05-10T06:48:45.662Z,6.78
2023-05-10T06:51:12.609Z,6.03
2023-05-10T06:53:39.285Z,5.95
2023-05-10T06:56:06.235Z,5.80
2023-05-10T06:58:33.792Z,5.53
2023-05-10T07:01:05.165Z,5.22
2023-05-10T07:03:32.718Z,5.13
2023-05-10T07:06:04.185Z,5.50
2023-05-10T07:08:32.232Z,5.00
2023-05-10T07:11:08.092Z,4.70
2023-05-10T07:13:35.598Z,5.60
2023-05-10T07:16:03.410Z,5.50
2023-05-10T07:18:30.450Z,5.38
2023-05-10T07:20:58.576Z,4.45
2023-05-10T07:23:25.489Z,5.18
2023-05-10T07:25:53.179Z,4.68
2023-05-10T07:28:20.446Z,4.53
2023-05-10T07:30:47.416Z,4.30
2023-05-10T07:33:15.298Z,4.65
2023-05-10T07:35:42.388Z,4.57
2023-05-10T07:38:09.121Z,4.70
2023-05-10T07:40:35.853Z,4.63
2023-05-10T07:43:03.480Z,4.30
2023-05-10T07:45:30.291Z,4.35
2023-05-10T07:47:57.095Z,4.20
2023-05-10T07:50:23.934Z,4.07
2023-05-10T07:52:50.960Z,3.88
2023-05-10T07:55:20.210Z,3.92
2023-05-10T07:57:46.939Z,3.72
2023-05-10T08:00:14.663Z,3.67
2023-05-10T08:02:42.578Z,3.97
2023-05-10T08:05:09.502Z,3.60
2023-05-10T08:07:36.589Z,3.60
2023-05-10T08:10:04.261Z,3.67
2023-05-10T08:12:31.376Z,3.60
2023-05-10T08:14:58.250Z,4.28
2023-05-10T08:17:24.966Z,4.22
2023-05-10T08:19:51.701Z,4.45
2023-05-10T08:22:18.445Z,4.30
2023-05-10T08:24:45.196Z,3.95
2023-05-10T08:27:11.937Z,3.70
2023-05-10T08:29:49.490Z,4.40
2023-05-10T08:32:17.339Z,4.30
2023-05-10T08:34:44.106Z,4.10
2023-05-10T08:37:13.967Z,4.55
2023-05-10T08:39:41.013Z,4.13
2023-05-10T08:42:09.293Z,4.07
2023-05-10T08:44:37.605Z,3.80
2023-05-10T08:47:07.951Z,3.85
2023-05-10T08:49:34.982Z,4.00
2023-05-10T08:52:05.287Z,3.40
2023-05-10T08:54:35.574Z,3.70
2023-05-10T08:57:02.562Z,3.90
2023-05-10T08:59:29.836Z,4.03
2023-05-10T09:01:59.917Z,3.88
2023-05-10T09:04:27.312Z,3.70
2023-05-10T09:06:54.579Z,3.92
2023-05-10T09:09:22.452Z,3.92
2023-05-10T09:11:49.644Z,3.35
2023-05-10T09:14:16.848Z,3.58
2023-05-10T09:16:44.024Z,3.70
2023-05-10T09:19:11.386Z,2.90
2023-05-10T09:21:41.496Z,3.45
2023-05-10T09:24:09.925Z,3.22
2023-05-10T09:26:46.377Z,3.08
2023-05-10T09:29:15.155Z,3.00
2023-05-10T09:31:48.306Z,2.70
2023-05-10T09:34:30.998Z,2.80
2023-05-10T09:37:01.895Z,2.50
2023-05-10T09:39:33.720Z,3.00
2023-05-10T09:42:19.610Z,3.20
2023-05-10T09:47:19.925Z,2.50
2023-05-10T09:49:58.846Z,3.40
2023-05-10T09:52:25.967Z,3.30
2023-05-10T09:54:55.808Z,3.50
2023-05-10T09:57:23.666Z,3.22
2023-05-10T09:59:51.599Z,3.63
2023-05-10T10:02:18.675Z,3.63
2023-05-10T10:04:45.584Z,3.22
2023-05-10T10:07:12.582Z,3.53
2023-05-10T10:09:40.092Z,3.60
2023-05-10T10:12:07.160Z,3.83
2023-05-10T10:14:35.101Z,3.55
2023-05-10T10:19:35.317Z,3.40
2023-05-10T10:22:02.075Z,2.97
2023-05-10T10:24:28.813Z,3.35
2023-05-10T10:27:00.743Z,3.00
2023-05-10T10:29:33.629Z,3.22
2023-05-10T10:32:09.960Z,3.20
2023-05-10T10:34:36.890Z,2.70
2023-05-10T10:37:07.631Z,3.35
2023-05-10T10:39:37.847Z,3.70
2023-05-10T10:42:05.563Z,3.33
2023-05-10T10:44:34.436Z,3.40
2023-05-10T10:47:12.610Z,3.38
2023-05-10T10:49:49.062Z,3.13
2023-05-10T10:52:29.497Z,3.33
2023-05-10T10:55:19.129Z,2.92
2023-05-10T10:57:49.433Z,3.08
2023-05-10T11:00:33.083Z,3.85
2023-05-10T11:03:02.988Z,3.30
2023-05-10T11:05:43.925Z,3.00
2023-05-10T11:08:26.716Z,3.08
2023-05-10T11:11:07.789Z,3.70
2023-05-10T11:13:51.530Z,3.80
2023-05-10T11:16:24.534Z,3.50
2023-05-10T11:19:17.611Z,3.50
2023-05-10T11:22:14.413Z,3.47
2023-05-10T11:24:41.396Z,3.65
2023-05-10T11:27:08.165Z,3.60
2023-05-10T11:29:34.843Z,3.40
2023-05-10T11:32:01.613Z,4.50
2023-05-10T11:34:34.634Z,4.28
2023-05-10T11:37:01.924Z,4.43
2023-05-10T11:39:30.446Z,4.18
2023-05-10T11:41:58.490Z,4.03
2023-05-10T11:44:31.359Z,4.55
2023-05-10T11:47:02.849Z,4.60
2023-05-10T11:49:29.681Z,5.00
2023-05-10T11:52:07.265Z,5.10
2023-05-10T11:54:35.965Z,4.80
2023-05-10T11:57:02.806Z,4.78
2023-05-10T11:59:29.626Z,4.82
2023-05-10T12:01:56.763Z,4.45
2023-05-10T12:04:23.727Z,4.78
2023-05-10T12:06:50.821Z,4.20
2023-05-10T12:09:19.178Z,4.53
2023-05-10T12:11:49.939Z,4.25
2023-05-10T12:14:17.723Z,3.72
2023-05-10T12:16:44.652Z,4.07
2023-05-10T12:19:11.725Z,3.70
2023-05-10T12:21:39.710Z,3.95
2023-05-10T12:24:06.597Z,3.67
2023-05-10T12:26:33.571Z,3.78
2023-05-10T12:29:14.784Z,3.67
2023-05-10T12:31:52.789Z,3.70
2023-05-10T12:34:33.916Z,3.63
2023-05-10T12:37:01.660Z,3.38
2023-05-10T12:39:42.981Z,3.92
2023-05-10T12:42:10.385Z,3.40
2023-05-10T12:44:37.171Z,3.17
2023-05-10T12:47:03.945Z,3.00
2023-05-10T12:49:30.691Z,2.90
2023-05-10T12:51:57.352Z,2.72
2023-05-10T12:54:24.099Z,3.17
2023-05-10T12:56:50.752Z,3.60
2023-05-10T12:59:17.445Z,3.03
2023-05-10T13:01:44.266Z,3.45
2023-05-10T13:04:11.037Z,3.58
2023-05-10T13:06:37.735Z,3.25
2023-05-10T13:09:04.828Z,3.50
2023-05-10T13:11:31.552Z,3.38
2023-05-10T13:13:58.389Z,3.25
2023-05-10T13:16:25.142Z,3.28
2023-05-10T13:18:51.856Z,3.30
2023-05-10T13:21:18.492Z,3.55
2023-05-10T13:23:45.302Z,3.78
2023-05-10T13:26:11.958Z,3.45
2023-05-10T13:28:39.770Z,3.35
2023-05-10T13:31:06.826Z,3.50
2023-05-10T13:33:33.566Z,3.63
2023-05-10T13:36:00.262Z,3.67
2023-05-10T13:38:26.976Z,3.80
2023-05-10T13:40:53.884Z,3.95
2023-05-10T13:43:20.946Z,3.95
2023-05-10T13:45:47.716Z,3.83
2023-05-10T13:48:14.478Z,3.53
2023-05-10T13:50:41.168Z,4.03
2023-05-10T13:53:08.190Z,4.22
2023-05-10T13:55:34.821Z,3.95
2023-05-10T13:58:01.543Z,4.50
2023-05-10T14:00:28.258Z,3.75
2023-05-10T14:02:55.164Z,4.03
2023-05-10T14:05:25.484Z,3.85
2023-05-10T14:07:53.107Z,4.45
2023-05-10T14:10:19.787Z,3.92
2023-05-10T14:12:46.519Z,4.15
2023-05-10T14:15:13.315Z,4.00
2023-05-10T14:17:40.425Z,3.90
2023-05-10T14:20:08.016Z,3.70
2023-05-10T14:22:35.053Z,4.10
2023-05-10T14:25:02.012Z,4.00
2023-05-10T14:27:28.853Z,4.18
2023-05-10T14:29:55.776Z,3.72
2023-05-10T14:32:22.579Z,4.50
2023-05-10T14:34:49.294Z,4.03
2023-05-10T14:37:16.416Z,4.38
2023-05-10T14:39:43.653Z,4.28
2023-05-10T14:42:10.288Z,3.70
2023-05-10T14:44:37.237Z,3.70
2023-05-10T14:47:04.036Z,3.78
2023-05-10T14:49:30.674Z,4.63
2023-05-10T14:51:57.506Z,4.30
2023-05-10T14:54:24.215Z,3.58
2023-05-10T14:56:51.325Z,4.38
2023-05-10T14:59:18.451Z,3.70
2023-05-10T15:01:46.075Z,3.78
2023-05-10T15:04:14.439Z,4.10
2023-05-10T15:06:41.931Z,3.97
2023-05-10T15:09:08.597Z,4.43
2023-05-10T15:11:35.653Z,3.67
2023-05-10T15:14:02.871Z,4.00
2023-05-10T15:16:29.575Z,3.58
2023-05-10T15:18:56.376Z,3.65
2023-05-10T15:21:23.110Z,3.47
2023-05-10T15:23:49.822Z,4.00
2023-05-10T15:26:16.548Z,3.40
2023-05-10T15:28:43.907Z,3.40
2023-05-10T15:31:11.468Z,3.67
2023-05-10T15:33:39.482Z,3.15
2023-05-10T15:36:06.428Z,3.20
2023-05-10T15:38:33.236Z,3.00
2023-05-10T15:40:59.982Z,3.13
2023-05-10T15:43:26.754Z,3.35
2023-05-10T15:45:53.401Z,3.25
2023-05-10T15:48:20.037Z,3.20
2023-05-10T15:50:46.834Z,2.97
2023-05-10T15:53:13.722Z,2.78
2023-05-10T15:55:40.532Z,2.92
2023-05-10T15:58:07.509Z,2.80
2023-05-10T16:00:34.223Z,2.90
2023-05-10T16:03:01.193Z,2.78
2023-05-10T16:05:32.190Z,2.95
2023-05-10T16:07:59.478Z,2.92
2023-05-10T16:10:26.196Z,2.88
2023-05-10T16:12:56.949Z,3.00
2023-05-10T16:15:23.695Z,3.03
2023-05-10T16:17:51.048Z,3.83
2023-05-10T16:20:18.123Z,3.67
2023-05-10T16:22:44.873Z,4.20
2023-05-10T16:25:13.491Z,3.33
2023-05-10T16:27:41.038Z,4.00
2023-05-10T16:30:08.493Z,3.53
2023-05-10T16:32:35.202Z,3.85
2023-05-10T16:35:02.076Z,4.43
2023-05-10T16:37:28.863Z,4.70
2023-05-10T16:39:55.699Z,4.25
2023-05-10T16:42:23.992Z,4.18
2023-05-10T16:44:50.857Z,3.65
2023-05-10T16:47:17.693Z,3.70
2023-05-10T16:49:44.448Z,5.28
2023-05-10T16:52:11.171Z,4.32
2023-05-10T16:54:37.825Z,4.55
2023-05-10T16:57:04.709Z,4.40
2023-05-10T16:59:31.500Z,4.15
2023-05-10T17:01:58.285Z,4.28
2023-05-10T17:04:25.068Z,4.60
2023-05-10T17:06:51.772Z,4.70
2023-05-10T17:09:20.188Z,3.85
2023-05-10T17:11:47.086Z,4.47
2023-05-10T17:14:13.814Z,3.80
2023-05-10T17:16:41.313Z,3.90
2023-05-10T17:19:09.731Z,4.25
2023-05-10T17:21:36.706Z,3.80
2023-05-10T17:24:03.509Z,3.92
2023-05-10T17:26:30.689Z,4.22
2023-05-10T17:28:57.754Z,4.03
2023-05-10T17:31:24.612Z,3.95
2023-05-10T17:33:51.467Z,4.07
2023-05-10T17:36:18.154Z,4.20
2023-05-10T17:38:45.014Z,4.20
2023-05-10T17:41:12.375Z,4.40
2023-05-10T17:43:39.032Z,5.05
2023-05-10T17:46:05.940Z,4.07
2023-05-10T17:48:32.736Z,3.85
2023-05-10T17:50:59.479Z,3.33
2023-05-10T17:53:26.186Z,3.70
2023-05-10T17:55:53.789Z,3.97
2023-05-10T17:58:20.555Z,4.05
2023-05-10T18:00:47.635Z,4.32
2023-05-10T18:03:14.692Z,4.22
2023-05-10T18:05:41.463Z,4.88
2023-05-10T18:08:08.604Z,3.53
2023-05-10T18:10:37.691Z,3.90
2023-05-10T18:13:08.060Z,3.80
2023-05-10T18:15:35.581Z,4.10
2023-05-10T18:18:04.092Z,4.13
2023-05-10T18:20:31.576Z,4.07
2023-05-10T18:22:58.548Z,4.25
2023-05-10T18:25:26.007Z,4.80
2023-05-10T18:27:52.954Z,4.20
2023-05-10T18:30:19.643Z,4.30
2023-05-10T18:32:46.518Z,4.13
2023-05-10T18:35:13.333Z,4.10
2023-05-10T18:37:40.258Z,4.22
2023-05-10T18:40:12.763Z,3.97
2023-05-10T18:42:39.504Z,3.70
2023-05-10T18:45:07.427Z,3.83
2023-05-10T18:47:34.429Z,3.83
2023-05-10T18:50:02.773Z,3.63
2023-05-10T18:52:29.462Z,4.20
2023-05-10T18:54:56.101Z,4.05
2023-05-10T18:57:23.955Z,3.85
2023-05-10T18:59:50.598Z,3.88
2023-05-10T19:02:18.101Z,3.70
2023-05-10T19:04:44.837Z,3.65
2023-05-10T19:07:11.691Z,3.75
2023-05-10T19:09:39.180Z,4.05
2023-05-10T19:12:06.199Z,4.25
2023-05-10T19:14:32.867Z,4.32
2023-05-10T19:17:02.344Z,4.35
2023-05-10T19:19:30.198Z,4.63
2023-05-10T19:21:57.829Z,4.93
2023-05-10T19:24:26.539Z,4.85
2023-05-10T19:26:53.659Z,4.65
2023-05-10T19:29:20.386Z,5.07
2023-05-10T19:31:48.999Z,5.10
2023-05-10T19:34:16.851Z,5.03
2023-05-10T19:36:45.135Z,5.15
2023-05-10T19:39:15.089Z,5.32
2023-05-10T19:41:42.253Z,6.10
2023-05-10T19:44:09.284Z,5.80
2023-05-10T19:46:37.161Z,6.40
2023-05-10T19:49:05.049Z,5.72
2023-05-10T19:51:32.980Z,5.57
2023-05-10T19:54:00.458Z,6.40
2023-05-10T19:56:29.402Z,6.57
2023-05-10T19:58:56.385Z,6.32
2023-05-10T20:01:23.604Z,6.28
2023-05-10T20:03:50.685Z,6.95
2023-05-10T20:06:17.736Z,6.85
2023-05-10T20:08:46.960Z,7.18
2023-05-10T20:11:14.649Z,6.40
2023-05-10T20:13:41.563Z,6.90
2023-05-10T20:16:09.551Z,6.30
2023-05-10T20:18:38.285Z,5.97
2023-05-10T20:21:05.097Z,5.72
2023-05-10T20:23:33.327Z,5.40
2023-05-10T20:26:00.725Z,6.05
2023-05-10T20:28:29.220Z,6.35
2023-05-10T20:30:59.381Z,6.35
2023-05-10T20:33:26.650Z,6.05
2023-05-10T20:35:53.370Z,6.05
2023-05-10T20:38:21.077Z,5.88
2023-05-10T20:40:49.021Z,5.32
2023-05-10T20:43:16.036Z,6.50
2023-05-10T20:45:43.590Z,6.80
2023-05-10T20:48:11.040Z,6.32
2023-05-10T20:50:37.986Z,6.95
2023-05-10T20:53:05.167Z,6.78
2023-05-10T20:55:32.125Z,6.85
2023-05-10T20:57:58.840Z,7.53
2023-05-10T21:00:26.275Z,6.60
2023-05-10T21:02:53.192Z,7.32
2023-05-10T21:05:19.999Z,8.35
2023-05-10T21:07:46.732Z,8.18
2023-05-10T21:10:13.537Z,7.90
2023-05-10T21:12:40.351Z,8.00
2023-05-10T21:15:07.873Z,7.95
2023-05-10T21:17:34.601Z,7.95
2023-05-10T21:20:01.484Z,7.85
2023-05-10T21:22:28.207Z,8.70
2023-05-10T21:24:54.918Z,8.13
2023-05-10T21:27:21.959Z,7.78
2023-05-10T21:29:48.674Z,8.30
2023-05-10T21:32:15.360Z,8.35
2023-05-10T21:34:42.637Z,8.18
2023-05-10T21:37:09.486Z,7.97
2023-05-10T21:39:36.328Z,10.02
2023-05-10T21:42:03.756Z,9.27
2023-05-10T21:44:31.737Z,9.55
2023-05-10T21:46:58.591Z,10.98
2023-05-10T21:49:25.498Z,9.68
2023-05-10T21:51:52.910Z,11.05
2023-05-10T21:54:19.749Z,10.60
2023-05-10T21:56:46.621Z,10.68
2023-05-10T21:59:13.462Z,11.35
2023-05-10T22:01:40.256Z,10.05
2023-05-10T22:04:07.046Z,10.20
2023-05-10T22:06:34.016Z,9.65
2023-05-10T22:09:00.808Z,10.40
2023-05-10T22:11:27.526Z,11.32
2023-05-10T22:13:54.274Z,11.60
2023-05-10T22:16:21.032Z,11.23
2023-05-10T22:18:47.878Z,10.30
2023-05-10T22:21:14.904Z,10.93
2023-05-10T22:23:41.669Z,11.23
2023-05-10T22:26:08.390Z,10.85
2023-05-10T22:28:35.223Z,11.13
2023-05-10T22:31:01.940Z,12.00
2023-05-10T22:33:28.862Z,12.00
2023-05-10T22:35:55.880Z,11.30
2023-05-10T22:38:22.580Z,11.27
2023-05-10T22:40:49.317Z,11.25
2023-05-10T22:43:16.954Z,11.10
2023-05-10T22:45:43.722Z,12.48
2023-05-10T22:48:10.455Z,12.77
2023-05-10T22:50:37.599Z,14.25
2023-05-10T22:53:04.316Z,14.45
2023-05-10T22:55:31.140Z,15.18
2023-05-10T22:57:57.916Z,14.52
2023-05-10T23:00:24.657Z,15.30
2023-05-10T23:02:51.551Z,15.68
2023-05-10T23:05:18.646Z,16.60
2023-05-10T23:07:48.229Z,16.80
2023-05-10T23:10:15.209Z,17.35
2023-05-10T23:12:41.957Z,17.02
2023-05-10T23:15:09.511Z,17.45
2023-05-10T23:17:36.529Z,17.20
2023-05-10T23:20:04.038Z,16.85
2023-05-10T23:22:30.747Z,17.55
2023-05-10T23:24:57.465Z,16.80
2023-05-10T23:27:24.186Z,17.15
2023-05-10T23:29:55.488Z,17.58
2023-05-10T23:32:23.016Z,18.40
2023-05-10T23:34:50.069Z,18.73
2023-05-10T23:37:17.027Z,17.27
2023-05-10T23:39:43.824Z,17.92
2023-05-10T23:42:10.650Z,17.55
2023-05-10T23:44:37.337Z,18.40
2023-05-10T23:47:04.041Z,17.23
2023-05-10T23:49:30.893Z,17.15
2023-05-10T23:51:57.614Z,16.33
2023-05-10T23:54:24.281Z,16.92
2023-05-10T23:56:51.525Z,15.25
2023-05-10T23:59:18.188Z,14.43
